DAL525 KMSO-KORD
Flight info
| Callsign | DAL525 |
|---|---|
| Flight time | N/A |
| Altitude | 35000 |
| Route | GRZLY4 MSO HLN J90 RWF JAKSA FYTTE7 |
| Aircraft | B738/M-SDE2E3FGHIRWXY/LB1 |
Departure
| Time | 2026-04-26 17:34 |
|---|---|
| Airport | Missoula Montana Airport (KMSO) |
Arrival
| Time | N/A |
|---|---|
| Airport | Chicago O'Hare International Airport (KORD) |
| Time | Latitude | Longitude | Altitude | Speed | Heading |
|---|---|---|---|---|---|
| 2026-04-26 17:05 | 46.91883 | -114.08518 | 3192 ft | 0 kts | 113° |
| 2026-04-26 17:13 | 46.91883 | -114.08519 | 3195 ft | 0 kts | 114° |
| 2026-04-26 17:14 | 46.91883 | -114.08518 | 3195 ft | 0 kts | 114° |
| 2026-04-26 17:15 | 46.91883 | -114.08519 | 3195 ft | 0 kts | 114° |
| 2026-04-26 17:25 | 46.91885 | -114.08534 | 3193 ft | 2 kts | 85° |
| 2026-04-26 17:25 | 46.91886 | -114.08553 | 3194 ft | 2 kts | 119° |
| 2026-04-26 17:26 | 46.91894 | -114.08573 | 3194 ft | 2 kts | 111° |
| 2026-04-26 17:26 | 46.91900 | -114.08593 | 3194 ft | 2 kts | 134° |
| 2026-04-26 17:26 | 46.91911 | -114.08604 | 3194 ft | 0 kts | 157° |
| 2026-04-26 17:26 | 46.91917 | -114.08607 | 3194 ft | 1 kts | 161° |
| 2026-04-26 17:27 | 46.91918 | -114.08608 | 3194 ft | 0 kts | 161° |
| 2026-04-26 17:28 | 46.91914 | -114.08606 | 3194 ft | 1 kts | 161° |
| 2026-04-26 17:28 | 46.91895 | -114.08619 | 3194 ft | 6 kts | 234° |
| 2026-04-26 17:29 | 46.91904 | -114.08690 | 3194 ft | 9 kts | 290° |
| 2026-04-26 17:29 | 46.91919 | -114.08752 | 3194 ft | 9 kts | 290° |
| 2026-04-26 17:29 | 46.91891 | -114.08897 | 3191 ft | 14 kts | 223° |
| 2026-04-26 17:29 | 46.91817 | -114.08990 | 3191 ft | 13 kts | 221° |
| 2026-04-26 17:30 | 46.91795 | -114.09097 | 3191 ft | 11 kts | 289° |
| 2026-04-26 17:30 | 46.91855 | -114.09210 | 3191 ft | 17 kts | 311° |
| 2026-04-26 17:30 | 46.91942 | -114.09359 | 3189 ft | 20 kts | 310° |
| 2026-04-26 17:30 | 46.92035 | -114.09518 | 3188 ft | 21 kts | 310° |
| 2026-04-26 17:31 | 46.92135 | -114.09690 | 3186 ft | 23 kts | 310° |
| 2026-04-26 17:31 | 46.92246 | -114.09882 | 3186 ft | 24 kts | 311° |
| 2026-04-26 17:31 | 46.92357 | -114.10069 | 3186 ft | 24 kts | 311° |
| 2026-04-26 17:31 | 46.92463 | -114.10250 | 3188 ft | 21 kts | 310° |
| 2026-04-26 17:32 | 46.92552 | -114.10410 | 3191 ft | 17 kts | 309° |
| 2026-04-26 17:32 | 46.92566 | -114.10536 | 3191 ft | 13 kts | 232° |
| 2026-04-26 17:32 | 46.92479 | -114.10603 | 3189 ft | 15 kts | 179° |
| 2026-04-26 17:32 | 46.92394 | -114.10501 | 3186 ft | 17 kts | 130° |
| 2026-04-26 17:33 | 46.92218 | -114.10203 | 3183 ft | 71 kts | 130° |
| 2026-04-26 17:33 | 46.91757 | -114.09410 | 3190 ft | 132 kts | 131° |
| 2026-04-26 17:33 | 46.91026 | -114.08167 | 3229 ft | 181 kts | 131° |
| 2026-04-26 17:34 | 46.89173 | -114.05600 | 4482 ft | 196 kts | 153° |
| 2026-04-26 17:34 | 46.87870 | -114.04988 | 5114 ft | 202 kts | 171° |
| 2026-04-26 17:34 | 46.86438 | -114.05021 | 5525 ft | 215 kts | 190° |
| 2026-04-26 17:34 | 46.85003 | -114.05739 | 6069 ft | 223 kts | 205° |
| 2026-04-26 17:35 | 46.83563 | -114.06747 | 6525 ft | 235 kts | 205° |
| 2026-04-26 17:35 | 46.82033 | -114.07561 | 7200 ft | 236 kts | 191° |
| 2026-04-26 17:35 | 46.80393 | -114.07729 | 7832 ft | 241 kts | 174° |
| 2026-04-26 17:35 | 46.78757 | -114.07451 | 8619 ft | 236 kts | 171° |
| 2026-04-26 17:36 | 46.77205 | -114.07078 | 9529 ft | 225 kts | 167° |
| 2026-04-26 17:36 | 46.75627 | -114.06544 | 10039 ft | 241 kts | 168° |
| 2026-04-26 17:36 | 46.73909 | -114.06143 | 10428 ft | 261 kts | 171° |
| 2026-04-26 17:36 | 46.72134 | -114.05800 | 11304 ft | 259 kts | 173° |
| 2026-04-26 17:37 | 46.70411 | -114.05500 | 12427 ft | 247 kts | 174° |
| 2026-04-26 17:37 | 46.68687 | -114.05060 | 12795 ft | 266 kts | 164° |
| 2026-04-26 17:37 | 46.66895 | -114.03968 | 12894 ft | 288 kts | 151° |
| 2026-04-26 17:38 | 46.64189 | -113.99590 | 13549 ft | 301 kts | 111° |
| 2026-04-26 17:38 | 46.63752 | -113.96652 | 14193 ft | 305 kts | 92° |
| 2026-04-26 17:38 | 46.64001 | -113.93604 | 14833 ft | 308 kts | 73° |
| 2026-04-26 17:38 | 46.64925 | -113.90821 | 15478 ft | 310 kts | 52° |
| 2026-04-26 17:39 | 46.66517 | -113.88706 | 16131 ft | 309 kts | 28° |
| 2026-04-26 17:39 | 46.68515 | -113.87749 | 16777 ft | 304 kts | 2° |
| 2026-04-26 17:39 | 46.70588 | -113.87814 | 17417 ft | 302 kts | 355° |
| 2026-04-26 17:39 | 46.72701 | -113.87756 | 18011 ft | 305 kts | 1° |
| 2026-04-26 17:40 | 46.74827 | -113.87368 | 18393 ft | 316 kts | 13° |
| 2026-04-26 17:40 | 46.75525 | -113.87037 | 18497 ft | 321 kts | 20° |
| 2026-04-26 17:40 | 46.78460 | -113.83427 | 18809 ft | 351 kts | 58° |
| 2026-04-26 17:40 | 46.79356 | -113.80064 | 19004 ft | 365 kts | 79° |
| 2026-04-26 17:41 | 46.79509 | -113.76314 | 19162 ft | 379 kts | 92° |
| 2026-04-26 17:41 | 46.79328 | -113.72451 | 19352 ft | 393 kts | 96° |
| 2026-04-26 17:41 | 46.79043 | -113.68410 | 19543 ft | 406 kts | 97° |
| 2026-04-26 17:41 | 46.78674 | -113.64307 | 19705 ft | 420 kts | 99° |
| 2026-04-26 17:42 | 46.78239 | -113.60021 | 19926 ft | 433 kts | 99° |
| 2026-04-26 17:42 | 46.77781 | -113.55663 | 20426 ft | 437 kts | 99° |
| 2026-04-26 17:42 | 46.77321 | -113.51290 | 20912 ft | 442 kts | 99° |
| 2026-04-26 17:42 | 46.76858 | -113.46841 | 21444 ft | 446 kts | 99° |
| 2026-04-26 17:43 | 46.76395 | -113.42361 | 21902 ft | 450 kts | 99° |
| 2026-04-26 17:43 | 46.75937 | -113.37884 | 22364 ft | 454 kts | 99° |
| 2026-04-26 17:43 | 46.75472 | -113.33326 | 22844 ft | 458 kts | 100° |
| 2026-04-26 17:43 | 46.75005 | -113.28740 | 23263 ft | 462 kts | 100° |
| 2026-04-26 17:44 | 46.74529 | -113.24064 | 23728 ft | 465 kts | 100° |
| 2026-04-26 17:44 | 46.74059 | -113.19433 | 24205 ft | 468 kts | 100° |
| 2026-04-26 17:44 | 46.73579 | -113.14754 | 24629 ft | 471 kts | 100° |
| 2026-04-26 17:44 | 46.73103 | -113.10062 | 25007 ft | 474 kts | 100° |
| 2026-04-26 17:45 | 46.72606 | -113.05269 | 25460 ft | 475 kts | 99° |
| 2026-04-26 17:45 | 46.72111 | -113.00583 | 25877 ft | 476 kts | 100° |
| 2026-04-26 17:45 | 46.71606 | -112.95784 | 26236 ft | 480 kts | 100° |
| 2026-04-26 17:45 | 46.71101 | -112.90951 | 26535 ft | 484 kts | 99° |
| 2026-04-26 17:46 | 46.70603 | -112.86151 | 26916 ft | 486 kts | 99° |
| 2026-04-26 17:46 | 46.70097 | -112.81304 | 27338 ft | 486 kts | 99° |
| 2026-04-26 17:46 | 46.69587 | -112.76472 | 27684 ft | 488 kts | 99° |
| 2026-04-26 17:46 | 46.69061 | -112.71521 | 27904 ft | 493 kts | 99° |
| 2026-04-26 17:47 | 46.68537 | -112.66617 | 28491 ft | 489 kts | 99° |
| 2026-04-26 17:47 | 46.68184 | -112.63325 | 28941 ft | 486 kts | 99° |
| 2026-04-26 17:47 | 46.67486 | -112.56843 | 29510 ft | 485 kts | 99° |
| 2026-04-26 17:47 | 46.66959 | -112.51991 | 29892 ft | 485 kts | 99° |
| 2026-04-26 17:48 | 46.66428 | -112.47115 | 30301 ft | 485 kts | 99° |
| 2026-04-26 17:48 | 46.65893 | -112.42227 | 30813 ft | 483 kts | 99° |
| 2026-04-26 17:48 | 46.65364 | -112.37397 | 31184 ft | 482 kts | 99° |
| 2026-04-26 17:48 | 46.64833 | -112.32568 | 31467 ft | 483 kts | 100° |
| 2026-04-26 17:49 | 46.64308 | -112.27814 | 31750 ft | 484 kts | 100° |
| 2026-04-26 17:49 | 46.63776 | -112.23003 | 32047 ft | 483 kts | 101° |
| 2026-04-26 17:49 | 46.63239 | -112.18165 | 32306 ft | 482 kts | 101° |
| 2026-04-26 17:49 | 46.62708 | -112.13393 | 32508 ft | 483 kts | 101° |
| 2026-04-26 17:50 | 46.62167 | -112.08555 | 32742 ft | 483 kts | 101° |
| 2026-04-26 17:50 | 46.61633 | -112.03795 | 32950 ft | 483 kts | 101° |
| 2026-04-26 17:50 | 46.61095 | -111.98954 | 33094 ft | 485 kts | 101° |
| 2026-04-26 17:50 | 46.60674 | -111.94094 | 33285 ft | 487 kts | 97° |
| 2026-04-26 17:51 | 46.60443 | -111.89198 | 33459 ft | 488 kts | 95° |
| 2026-04-26 17:51 | 46.60325 | -111.84254 | 33616 ft | 490 kts | 93° |
| 2026-04-26 17:51 | 46.60279 | -111.79355 | 33858 ft | 489 kts | 92° |
| 2026-04-26 17:51 | 46.60260 | -111.74396 | 34085 ft | 489 kts | 92° |
| 2026-04-26 17:52 | 46.60244 | -111.69491 | 34282 ft | 490 kts | 92° |
| 2026-04-26 17:52 | 46.60219 | -111.64564 | 34572 ft | 488 kts | 92° |
| 2026-04-26 17:52 | 46.60182 | -111.59642 | 34799 ft | 488 kts | 92° |
| 2026-04-26 17:52 | 46.60132 | -111.54765 | 34878 ft | 489 kts | 92° |
| 2026-04-26 17:53 | 46.60004 | -111.44920 | 34877 ft | 487 kts | 93° |
| 2026-04-26 17:54 | 46.59770 | -111.30148 | 34842 ft | 489 kts | 94° |
| 2026-04-26 17:54 | 46.59599 | -111.20291 | 34819 ft | 489 kts | 94° |
| 2026-04-26 17:55 | 46.59421 | -111.10465 | 34839 ft | 489 kts | 95° |
| 2026-04-26 17:55 | 46.59232 | -111.00594 | 34856 ft | 490 kts | 94° |
| 2026-04-26 17:56 | 46.59036 | -110.90749 | 34832 ft | 490 kts | 94° |
| 2026-04-26 17:57 | 46.58619 | -110.71044 | 34788 ft | 489 kts | 94° |
| 2026-04-26 17:57 | 46.58395 | -110.61094 | 34788 ft | 492 kts | 95° |
| 2026-04-26 17:58 | 46.57927 | -110.41244 | 34801 ft | 492 kts | 95° |
| 2026-04-26 17:59 | 46.57548 | -110.26348 | 34840 ft | 493 kts | 96° |
| 2026-04-26 17:59 | 46.57285 | -110.16419 | 34853 ft | 494 kts | 96° |
| 2026-04-26 18:00 | 46.57016 | -110.06505 | 34872 ft | 493 kts | 96° |
| 2026-04-26 18:00 | 46.56735 | -109.96591 | 34865 ft | 494 kts | 96° |
| 2026-04-26 18:01 | 46.56448 | -109.86661 | 34887 ft | 494 kts | 96° |
| 2026-04-26 18:01 | 46.56152 | -109.76677 | 34925 ft | 495 kts | 96° |
| 2026-04-26 18:02 | 46.55952 | -109.70089 | 34902 ft | 495 kts | 96° |
| 2026-04-26 18:02 | 46.55536 | -109.56799 | 34897 ft | 493 kts | 96° |
| 2026-04-26 18:03 | 46.55214 | -109.46838 | 34889 ft | 495 kts | 96° |
| 2026-04-26 18:03 | 46.54880 | -109.36906 | 34882 ft | 494 kts | 96° |
| 2026-04-26 18:04 | 46.54536 | -109.26939 | 34887 ft | 495 kts | 97° |
| 2026-04-26 18:05 | 46.54012 | -109.12056 | 34901 ft | 494 kts | 97° |
| 2026-04-26 18:05 | 46.53651 | -109.02146 | 34933 ft | 497 kts | 97° |
| 2026-04-26 18:06 | 46.53280 | -108.92145 | 34937 ft | 494 kts | 97° |
| 2026-04-26 18:06 | 46.52902 | -108.82230 | 34908 ft | 494 kts | 97° |
| 2026-04-26 18:07 | 46.52515 | -108.72292 | 34902 ft | 496 kts | 97° |
| 2026-04-26 18:07 | 46.52119 | -108.62361 | 34923 ft | 494 kts | 97° |
| 2026-04-26 18:08 | 46.51714 | -108.52415 | 34900 ft | 496 kts | 97° |
| 2026-04-26 18:08 | 46.51302 | -108.42511 | 34905 ft | 496 kts | 97° |
| 2026-04-26 18:09 | 46.50880 | -108.32532 | 34911 ft | 496 kts | 98° |
| 2026-04-26 18:09 | 46.50452 | -108.22607 | 34898 ft | 494 kts | 98° |
| 2026-04-26 18:10 | 46.50011 | -108.12698 | 34899 ft | 495 kts | 98° |
| 2026-04-26 18:10 | 46.49562 | -108.02743 | 34884 ft | 495 kts | 98° |
| 2026-04-26 18:11 | 46.49103 | -107.92803 | 34873 ft | 495 kts | 98° |
| 2026-04-26 18:11 | 46.48638 | -107.82882 | 34865 ft | 495 kts | 98° |
| 2026-04-26 18:12 | 46.48166 | -107.73000 | 34864 ft | 495 kts | 98° |
| 2026-04-26 18:12 | 46.47681 | -107.63049 | 34873 ft | 497 kts | 98° |
| 2026-04-26 18:13 | 46.47189 | -107.53111 | 34865 ft | 497 kts | 98° |
| 2026-04-26 18:13 | 46.46688 | -107.43143 | 34873 ft | 497 kts | 98° |
| 2026-04-26 18:14 | 46.46178 | -107.33145 | 34875 ft | 497 kts | 99° |
| 2026-04-26 18:14 | 46.45663 | -107.23231 | 34882 ft | 496 kts | 99° |
| 2026-04-26 18:15 | 46.45135 | -107.13284 | 34870 ft | 496 kts | 99° |
| 2026-04-26 18:15 | 46.44598 | -107.03339 | 34898 ft | 499 kts | 99° |
| 2026-04-26 18:16 | 46.44054 | -106.93359 | 34883 ft | 494 kts | 99° |
| 2026-04-26 18:16 | 46.43225 | -106.78535 | 34877 ft | 497 kts | 99° |
| 2026-04-26 18:17 | 46.42659 | -106.68597 | 34875 ft | 497 kts | 99° |
| 2026-04-26 18:17 | 46.42083 | -106.58643 | 34880 ft | 497 kts | 99° |
| 2026-04-26 18:18 | 46.41502 | -106.48711 | 34872 ft | 496 kts | 99° |
| 2026-04-26 18:18 | 46.40914 | -106.38828 | 34864 ft | 498 kts | 99° |
| 2026-04-26 18:19 | 46.40311 | -106.28865 | 34861 ft | 497 kts | 100° |
| 2026-04-26 18:19 | 46.39704 | -106.18958 | 34869 ft | 497 kts | 100° |
| 2026-04-26 18:20 | 46.39085 | -106.08993 | 34876 ft | 497 kts | 100° |
| 2026-04-26 18:20 | 46.38669 | -106.02367 | 34873 ft | 496 kts | 100° |
| 2026-04-26 18:21 | 46.37763 | -105.89148 | 34890 ft | 496 kts | 102° |
| 2026-04-26 18:21 | 46.36849 | -105.79292 | 34887 ft | 496 kts | 103° |
| 2026-04-26 18:22 | 46.35872 | -105.69500 | 34887 ft | 496 kts | 103° |
| 2026-04-26 18:22 | 46.34896 | -105.59663 | 34876 ft | 497 kts | 103° |
| 2026-04-26 18:23 | 46.33931 | -105.49815 | 34867 ft | 496 kts | 103° |
| 2026-04-26 18:23 | 46.32967 | -105.39923 | 34859 ft | 496 kts | 102° |
| 2026-04-26 18:24 | 46.32002 | -105.30064 | 34861 ft | 496 kts | 103° |
| 2026-04-26 18:24 | 46.31044 | -105.20298 | 34859 ft | 494 kts | 103° |
| 2026-04-26 18:25 | 46.30069 | -105.10489 | 34857 ft | 494 kts | 103° |
| 2026-04-26 18:25 | 46.29085 | -105.00694 | 34856 ft | 496 kts | 103° |
| 2026-04-26 18:26 | 46.28089 | -104.90862 | 34853 ft | 495 kts | 103° |
| 2026-04-26 18:26 | 46.27086 | -104.81055 | 34859 ft | 495 kts | 103° |
| 2026-04-26 18:27 | 46.26078 | -104.71274 | 34868 ft | 496 kts | 103° |
| 2026-04-26 18:27 | 46.25057 | -104.61455 | 34866 ft | 497 kts | 103° |
| 2026-04-26 18:28 | 46.24024 | -104.51612 | 34861 ft | 498 kts | 103° |
| 2026-04-26 18:28 | 46.22982 | -104.41764 | 34869 ft | 496 kts | 103° |
| 2026-04-26 18:29 | 46.21932 | -104.31908 | 34873 ft | 497 kts | 103° |
| 2026-04-26 18:29 | 46.20883 | -104.22147 | 34868 ft | 494 kts | 103° |
| 2026-04-26 18:30 | 46.19821 | -104.12348 | 34873 ft | 494 kts | 104° |
| 2026-04-26 18:30 | 46.18758 | -104.02631 | 34873 ft | 493 kts | 103° |
| 2026-04-26 18:31 | 46.17675 | -103.92817 | 34879 ft | 495 kts | 103° |
| 2026-04-26 18:31 | 46.16595 | -103.83090 | 34875 ft | 493 kts | 103° |
| 2026-04-26 18:32 | 46.15510 | -103.73385 | 34877 ft | 495 kts | 103° |
| 2026-04-26 18:32 | 46.14411 | -103.63650 | 34868 ft | 494 kts | 103° |
| 2026-04-26 18:33 | 46.13300 | -103.53879 | 34895 ft | 492 kts | 104° |
| 2026-04-26 18:33 | 46.12189 | -103.44196 | 34902 ft | 491 kts | 104° |
| 2026-04-26 18:34 | 46.11069 | -103.34507 | 34927 ft | 490 kts | 105° |
| 2026-04-26 18:34 | 46.09951 | -103.24921 | 34928 ft | 489 kts | 105° |
| 2026-04-26 18:35 | 46.08823 | -103.15322 | 34920 ft | 489 kts | 105° |
| 2026-04-26 18:35 | 46.07686 | -103.05718 | 34907 ft | 487 kts | 105° |
| 2026-04-26 18:36 | 46.06549 | -102.96161 | 34909 ft | 486 kts | 105° |
| 2026-04-26 18:36 | 46.05399 | -102.86588 | 34917 ft | 487 kts | 105° |
| 2026-04-26 18:37 | 46.04242 | -102.77039 | 34933 ft | 489 kts | 105° |
| 2026-04-26 18:37 | 46.03073 | -102.67441 | 34950 ft | 487 kts | 105° |
| 2026-04-26 18:38 | 46.01898 | -102.57852 | 34951 ft | 487 kts | 105° |
| 2026-04-26 18:38 | 46.00719 | -102.48312 | 34951 ft | 487 kts | 105° |
| 2026-04-26 18:39 | 45.99536 | -102.38796 | 34936 ft | 486 kts | 105° |
| 2026-04-26 18:39 | 45.98338 | -102.29247 | 34932 ft | 488 kts | 106° |
| 2026-04-26 18:40 | 45.97136 | -102.19707 | 34925 ft | 486 kts | 106° |
| 2026-04-26 18:40 | 45.95920 | -102.10156 | 34934 ft | 488 kts | 106° |
| 2026-04-26 18:41 | 45.94702 | -102.00646 | 34933 ft | 488 kts | 106° |
| 2026-04-26 18:41 | 45.93467 | -101.91067 | 34937 ft | 486 kts | 106° |
| 2026-04-26 18:42 | 45.92236 | -101.81588 | 34942 ft | 485 kts | 106° |
| 2026-04-26 18:42 | 45.91001 | -101.72117 | 34945 ft | 485 kts | 106° |
| 2026-04-26 18:43 | 45.89756 | -101.62650 | 34944 ft | 485 kts | 106° |
| 2026-04-26 18:43 | 45.88496 | -101.53152 | 34947 ft | 487 kts | 106° |
| 2026-04-26 18:44 | 45.87230 | -101.43650 | 34952 ft | 485 kts | 106° |
| 2026-04-26 18:44 | 45.85960 | -101.34184 | 34953 ft | 485 kts | 107° |
| 2026-04-26 18:45 | 45.84683 | -101.24732 | 34953 ft | 485 kts | 107° |
| 2026-04-26 18:45 | 45.83403 | -101.15324 | 34954 ft | 485 kts | 107° |
| 2026-04-26 18:46 | 45.82106 | -101.05855 | 34944 ft | 485 kts | 107° |
| 2026-04-26 18:46 | 45.80803 | -100.96392 | 34942 ft | 485 kts | 107° |
| 2026-04-26 18:47 | 45.79499 | -100.86987 | 34944 ft | 485 kts | 107° |
| 2026-04-26 18:47 | 45.78182 | -100.77557 | 34948 ft | 485 kts | 107° |
| 2026-04-26 18:48 | 45.76855 | -100.68110 | 34951 ft | 485 kts | 107° |
| 2026-04-26 18:48 | 45.75521 | -100.58675 | 34956 ft | 485 kts | 107° |
| 2026-04-26 18:49 | 45.74179 | -100.49250 | 34957 ft | 485 kts | 107° |
| 2026-04-26 18:49 | 45.72831 | -100.39818 | 34961 ft | 486 kts | 107° |
| 2026-04-26 18:50 | 45.71467 | -100.30346 | 34963 ft | 486 kts | 108° |
| 2026-04-26 18:50 | 45.70108 | -100.20966 | 34963 ft | 486 kts | 108° |
| 2026-04-26 18:51 | 45.68732 | -100.11531 | 34965 ft | 486 kts | 108° |
| 2026-04-26 18:51 | 45.67348 | -100.02100 | 34965 ft | 486 kts | 108° |
| 2026-04-26 18:52 | 45.65960 | -99.92701 | 34964 ft | 486 kts | 108° |
| 2026-04-26 18:52 | 45.64555 | -99.83240 | 34967 ft | 487 kts | 108° |
| 2026-04-26 18:53 | 45.63153 | -99.73856 | 34966 ft | 488 kts | 108° |
| 2026-04-26 18:53 | 45.61731 | -99.64394 | 34970 ft | 487 kts | 108° |
| 2026-04-26 18:54 | 45.60316 | -99.55017 | 34971 ft | 489 kts | 108° |
| 2026-04-26 18:54 | 45.58883 | -99.45592 | 34971 ft | 487 kts | 108° |
| 2026-04-26 18:55 | 45.57432 | -99.36114 | 34974 ft | 489 kts | 108° |